createdAt,value
2016-03-24T00:00:52.735Z,0
2016-03-24T00:01:52.753Z,0
2016-03-24T00:02:52.740Z,0
2016-03-24T00:03:52.758Z,0
2016-03-24T00:04:52.761Z,0
2016-03-24T00:05:52.780Z,0
2016-03-24T00:06:52.766Z,0
2016-03-24T00:07:52.785Z,0
2016-03-24T00:08:52.787Z,0
2016-03-24T00:09:52.822Z,0
2016-03-24T00:10:52.808Z,0
2016-03-24T00:11:52.811Z,0
2016-03-24T00:12:52.813Z,0
2016-03-24T00:13:52.801Z,0
2016-03-24T00:14:52.819Z,0
2016-03-24T00:15:52.838Z,0
2016-03-24T00:16:52.840Z,0
2016-03-24T00:17:52.843Z,0
2016-03-24T00:18:52.877Z,0
2016-03-24T00:19:52.895Z,0
2016-03-24T00:20:52.851Z,0
2016-03-24T00:21:52.869Z,0
2016-03-24T00:22:52.873Z,0
2016-03-24T00:23:52.890Z,0
2016-03-24T00:24:52.893Z,0
2016-03-24T00:25:52.911Z,0
2016-03-24T00:26:52.914Z,0
2016-03-24T00:27:52.917Z,0
2016-03-24T00:28:52.904Z,0
2016-03-24T00:29:52.906Z,0
2016-03-24T00:30:52.925Z,0
2016-03-24T00:31:52.928Z,0
2016-03-24T00:32:52.931Z,0
2016-03-24T00:33:52.933Z,0
2016-03-24T00:34:52.951Z,0
2016-03-24T00:35:52.969Z,0
2016-03-24T00:36:52.957Z,0
2016-03-24T00:37:52.975Z,0
2016-03-24T00:38:52.977Z,0
2016-03-24T00:39:52.980Z,0
2016-03-24T00:40:52.998Z,0
2016-03-24T00:41:53.017Z,0
2016-03-24T00:42:53.019Z,0
2016-03-24T00:43:53.007Z,0
2016-03-24T00:44:53.009Z,0
2016-03-24T00:45:53.075Z,0
2016-03-24T00:46:53.046Z,0
2016-03-24T00:47:53.033Z,0
2016-03-24T00:48:53.035Z,0
2016-03-24T00:49:53.054Z,0
2016-03-24T00:50:53.057Z,0
2016-03-24T00:51:53.059Z,0
2016-03-24T00:52:53.093Z,0
2016-03-24T00:53:53.080Z,0
2016-03-24T00:54:53.083Z,0
2016-03-24T00:55:53.086Z,0
2016-03-24T00:56:53.104Z,0
2016-03-24T00:57:53.091Z,0
2016-03-24T00:58:53.094Z,0
2016-03-24T00:59:53.112Z,0
2016-03-24T01:00:53.130Z,0
2016-03-24T01:01:53.117Z,0
2016-03-24T01:02:53.119Z,0
2016-03-24T01:03:53.170Z,0
2016-03-24T01:04:53.157Z,0
2016-03-24T01:05:53.144Z,0
2016-03-24T01:06:53.162Z,0
2016-03-24T01:07:53.165Z,0
2016-03-24T01:08:53.167Z,0
2016-03-24T01:09:53.171Z,0
2016-03-24T01:10:53.188Z,0
2016-03-24T01:11:53.176Z,0
2016-03-24T01:12:53.179Z,0
2016-03-24T01:13:53.197Z,0
2016-03-24T01:14:53.199Z,0
2016-03-24T01:15:53.202Z,0
2016-03-24T01:16:53.204Z,0
2016-03-24T01:17:53.207Z,0
2016-03-24T01:18:53.209Z,0
2016-03-24T01:19:53.228Z,0
2016-03-24T01:20:53.231Z,0
2016-03-24T01:21:53.264Z,0
2016-03-24T01:22:53.236Z,0
2016-03-24T01:23:53.270Z,0
2016-03-24T01:24:53.289Z,0
2016-03-24T01:25:53.275Z,0
2016-03-24T01:26:53.279Z,0
2016-03-24T01:27:53.328Z,0
2016-03-24T01:28:53.300Z,0
2016-03-24T01:29:53.302Z,0
2016-03-24T01:30:53.305Z,0
2016-03-24T01:31:53.307Z,0
2016-03-24T01:32:53.311Z,0
2016-03-24T01:33:53.313Z,0
2016-03-24T01:34:53.316Z,0
2016-03-24T01:35:53.333Z,0
2016-03-24T01:36:53.336Z,0
2016-03-24T01:37:53.339Z,0
2016-03-24T01:38:53.358Z,0
2016-03-24T01:39:53.360Z,0
2016-03-24T01:40:53.363Z,0
2016-03-24T01:41:53.366Z,0
2016-03-24T01:42:53.384Z,0
2016-03-24T01:43:53.402Z,0
2016-03-24T01:44:53.389Z,0
2016-03-24T01:45:53.454Z,0
2016-03-24T01:46:53.410Z,0
2016-03-24T01:47:53.413Z,0
2016-03-24T01:48:53.415Z,0
2016-03-24T01:49:53.418Z,0
2016-03-24T01:50:53.420Z,0
2016-03-24T01:51:53.440Z,0
2016-03-24T01:52:53.442Z,0
2016-03-24T01:53:53.445Z,0
2016-03-24T01:54:53.292Z,0
2016-03-24T01:55:53.451Z,0
2016-03-24T01:56:53.453Z,0
2016-03-24T01:57:53.471Z,0
2016-03-24T01:58:53.473Z,0
2016-03-24T01:59:53.476Z,0
2016-03-24T02:00:53.495Z,0
2016-03-24T02:01:53.497Z,0
2016-03-24T02:02:53.516Z,0
2016-03-24T02:03:53.690Z,0
2016-03-24T02:04:53.521Z,0
2016-03-24T02:05:53.524Z,0
2016-03-24T02:06:53.527Z,0
2016-03-24T02:07:53.529Z,0
2016-03-24T02:08:53.532Z,0
2016-03-24T02:09:53.535Z,0
2016-03-24T02:10:53.553Z,0
2016-03-24T02:11:53.555Z,0
2016-03-24T02:12:53.574Z,0
2016-03-24T02:13:53.576Z,0
2016-03-24T02:14:53.564Z,0
2016-03-24T02:15:53.566Z,0
2016-03-24T02:16:53.568Z,0
2016-03-24T02:17:53.571Z,0
2016-03-24T02:18:53.574Z,0
2016-03-24T02:19:53.624Z,0
2016-03-24T02:20:53.612Z,0
2016-03-24T02:21:53.614Z,0
2016-03-24T02:22:53.632Z,0
2016-03-24T02:23:53.651Z,0
2016-03-24T02:24:53.638Z,0
2016-03-24T02:25:53.640Z,0
2016-03-24T02:26:53.643Z,0
2016-03-24T02:27:53.645Z,0
2016-03-24T02:28:53.633Z,0
2016-03-24T02:29:53.698Z,0
2016-03-24T02:30:53.669Z,0
2016-03-24T02:31:53.687Z,0
2016-03-24T02:32:53.674Z,0
2016-03-24T02:33:53.677Z,0
2016-03-24T02:34:53.695Z,0
2016-03-24T02:35:53.714Z,0
2016-03-24T02:36:53.716Z,0
2016-03-24T02:37:53.719Z,0
2016-03-24T02:38:53.722Z,0
2016-03-24T02:39:53.756Z,0
2016-03-24T02:40:53.806Z,0
2016-03-24T02:41:53.793Z,0
2016-03-24T02:42:53.796Z,0
2016-03-24T02:43:53.783Z,0
2016-03-24T02:44:53.785Z,0
2016-03-24T02:47:27.715Z,0
2016-03-24T02:47:40.355Z,0
2016-03-24T02:48:40.296Z,0
2016-03-24T02:49:40.377Z,0
2016-03-24T02:50:40.379Z,0
2016-03-24T02:51:40.382Z,0
2016-03-24T02:52:40.401Z,0
2016-03-24T02:53:40.451Z,0
2016-03-24T02:54:40.406Z,0
2016-03-24T02:55:40.409Z,0
2016-03-24T02:56:40.411Z,0
2016-03-24T02:57:40.429Z,0
2016-03-24T02:58:40.448Z,0
2016-03-24T02:59:40.434Z,0
2016-03-24T03:00:40.562Z,0
2016-03-24T03:01:40.471Z,0
2016-03-24T03:02:40.458Z,0
2016-03-24T03:03:40.648Z,0
2016-03-24T03:04:40.464Z,0
2016-03-24T03:05:40.482Z,0
2016-03-24T03:06:40.532Z,0
2016-03-24T03:07:40.472Z,0
2016-03-24T03:08:40.491Z,0
2016-03-24T03:09:40.493Z,0
2016-03-24T03:10:40.511Z,0
2016-03-24T03:11:40.513Z,0
2016-03-24T03:12:40.564Z,0
2016-03-24T03:13:40.519Z,0
2016-03-24T03:14:40.538Z,0
2016-03-24T03:15:40.524Z,0
2016-03-24T03:16:40.543Z,0
2016-03-24T03:17:40.545Z,0
2016-03-24T03:18:40.689Z,0
2016-03-24T03:19:40.566Z,0
2016-03-24T03:20:40.554Z,0
2016-03-24T03:21:40.572Z,0
2016-03-24T03:22:40.607Z,0
2016-03-24T03:23:40.609Z,0
2016-03-24T03:24:40.627Z,0
2016-03-24T03:25:40.629Z,0
2016-03-24T03:26:40.632Z,0
2016-03-24T03:27:40.635Z,0
2016-03-24T03:28:40.654Z,0
2016-03-24T03:32:33.898Z,0
2016-03-24T03:32:46.539Z,0
2016-03-24T03:33:46.604Z,0
2016-03-24T03:34:46.561Z,0
2016-03-24T03:35:46.564Z,0
2016-03-24T03:36:46.566Z,0
2016-03-24T03:37:46.584Z,0
2016-03-24T03:38:46.586Z,0
2016-03-24T03:39:46.589Z,0
2016-03-24T03:40:46.591Z,0
2016-03-24T03:41:46.595Z,0
2016-03-24T03:42:46.613Z,0
2016-03-24T03:43:46.616Z,0
2016-03-24T03:44:46.618Z,0
2016-03-24T03:45:46.449Z,0
2016-03-24T03:46:46.623Z,0
2016-03-24T03:47:46.641Z,0
2016-03-24T03:48:46.644Z,0
2016-03-24T03:49:46.647Z,0
2016-03-24T03:50:46.649Z,0
2016-03-24T03:51:46.669Z,0
2016-03-24T03:52:46.655Z,0
2016-03-24T03:53:46.674Z,0
2016-03-24T03:54:46.692Z,0
2016-03-24T03:55:46.679Z,0
2016-03-24T03:56:46.681Z,0
2016-03-24T03:57:46.685Z,0
2016-03-24T03:58:46.703Z,0
2016-03-24T03:59:46.721Z,0
2016-03-24T04:00:46.708Z,0
2016-03-24T04:01:46.726Z,0
2016-03-24T04:02:46.729Z,0
2016-03-24T04:03:46.826Z,0
2016-03-24T04:04:46.734Z,0
2016-03-24T04:05:46.753Z,0
2016-03-24T04:06:46.745Z,0
2016-03-24T04:07:46.763Z,0
2016-03-24T04:08:46.766Z,0
2016-03-24T04:09:46.768Z,0
2016-03-24T04:10:46.786Z,0
2016-03-24T04:11:46.788Z,0
2016-03-24T04:12:46.792Z,0
2016-03-24T04:13:46.794Z,0
2016-03-24T04:14:46.813Z,0
2016-03-24T04:15:46.799Z,0
2016-03-24T04:16:46.819Z,0
2016-03-24T04:17:46.821Z,0
2016-03-24T04:18:46.840Z,0
2016-03-24T04:19:46.826Z,0
2016-03-24T04:20:46.688Z,0
2016-03-24T04:21:46.848Z,0
2016-03-24T04:22:46.851Z,0
2016-03-24T04:23:46.853Z,0
2016-03-24T04:24:46.871Z,0
2016-03-24T04:25:46.874Z,0
2016-03-24T04:26:46.876Z,0
2016-03-24T04:27:46.879Z,0
2016-03-24T04:28:46.882Z,0
2016-03-24T04:29:46.900Z,0
2016-03-24T04:30:46.903Z,0
2016-03-24T04:31:46.906Z,0
2016-03-24T04:32:46.939Z,0
2016-03-24T04:33:46.927Z,0
2016-03-24T04:34:46.929Z,0
2016-03-24T04:35:46.932Z,0
2016-03-24T04:36:46.935Z,0
2016-03-24T04:37:46.953Z,0
2016-03-24T04:38:46.955Z,0
2016-03-24T04:39:46.958Z,0
2016-03-24T04:40:46.976Z,0
2016-03-24T04:41:46.979Z,0
2016-03-24T04:42:46.982Z,0
2016-03-24T04:43:46.985Z,0
2016-03-24T04:44:47.002Z,0
2016-03-24T04:45:47.005Z,0
2016-03-24T04:46:47.008Z,0
2016-03-24T04:47:47.011Z,0
2016-03-24T04:48:47.013Z,0
2016-03-24T04:49:46.251Z,0
2016-03-24T04:50:47.034Z,0
2016-03-24T04:51:47.038Z,0
2016-03-24T04:52:47.024Z,0
2016-03-24T04:53:47.043Z,0
2016-03-24T04:54:47.045Z,0
2016-03-24T04:55:47.064Z,0
2016-03-24T04:56:47.066Z,0
2016-03-24T04:57:47.070Z,0
2016-03-24T04:58:47.072Z,0
2016-03-24T04:59:47.090Z,0
2016-03-24T05:00:47.092Z,0
2016-03-24T05:01:47.096Z,0
2016-03-24T05:02:47.083Z,0
2016-03-24T05:03:47.101Z,0
2016-03-24T05:04:47.103Z,0
2016-03-24T05:05:47.106Z,0
2016-03-24T05:06:47.108Z,0
2016-03-24T05:07:47.128Z,0
2016-03-24T05:08:47.130Z,0
2016-03-24T05:09:47.133Z,0
2016-03-24T05:10:47.135Z,0
2016-03-24T05:11:47.138Z,0
2016-03-24T05:12:53.532Z,0
2016-03-24T05:13:47.299Z,0
2016-03-24T05:14:47.146Z,0
2016-03-24T05:15:47.008Z,0
2016-03-24T05:16:47.168Z,0
2016-03-24T05:17:47.216Z,0
2016-03-24T05:18:47.188Z,0
2016-03-24T05:19:47.191Z,0
2016-03-24T05:20:47.193Z,0
2016-03-24T05:21:47.196Z,0
2016-03-24T05:22:47.246Z,0
2016-03-24T05:23:47.232Z,0
2016-03-24T05:24:47.251Z,0
2016-03-24T05:25:47.269Z,0
2016-03-24T05:26:47.240Z,0
2016-03-24T05:27:47.275Z,0
2016-03-24T05:28:47.262Z,0
2016-03-24T05:29:47.280Z,0
2016-03-24T05:30:47.283Z,0
2016-03-24T05:31:47.270Z,0
2016-03-24T05:32:47.273Z,0
2016-03-24T05:33:47.275Z,0
2016-03-24T05:34:47.278Z,0
2016-03-24T05:35:47.280Z,0
2016-03-24T05:36:47.300Z,0
2016-03-24T05:37:47.302Z,0
2016-03-24T05:38:47.305Z,0
2016-03-24T05:39:47.322Z,0
2016-03-24T05:40:47.341Z,0
2016-03-24T05:41:47.343Z,0
2016-03-24T05:42:47.347Z,0
2016-03-24T05:43:47.349Z,0
2016-03-24T05:44:47.352Z,0
2016-03-24T05:45:47.355Z,0
2016-03-24T05:46:47.358Z,0
2016-03-24T05:47:47.360Z,0
2016-03-24T05:48:47.207Z,0
2016-03-24T05:49:47.365Z,0
2016-03-24T05:50:47.368Z,0
2016-03-24T05:51:47.387Z,0
2016-03-24T05:52:47.405Z,0
2016-03-24T05:53:47.392Z,0
2016-03-24T05:54:47.410Z,0
2016-03-24T05:55:47.428Z,0
2016-03-24T05:56:47.415Z,0
2016-03-24T05:57:47.434Z,0
2016-03-24T05:58:47.437Z,0
2016-03-24T05:59:47.595Z,0
2016-03-24T06:00:47.598Z,0
2016-03-24T06:01:47.476Z,0
2016-03-24T06:02:47.447Z,0
2016-03-24T06:03:47.434Z,0
2016-03-24T06:04:47.452Z,0
2016-03-24T06:05:47.470Z,0
2016-03-24T06:06:47.473Z,0
2016-03-24T06:07:47.492Z,0
2016-03-24T06:08:47.495Z,0
2016-03-24T06:09:47.497Z,0
2016-03-24T06:10:47.499Z,0
2016-03-24T06:11:47.518Z,0
2016-03-24T06:12:47.521Z,0
2016-03-24T06:13:47.524Z,0
2016-03-24T06:14:47.541Z,0
2016-03-24T06:15:47.529Z,0
2016-03-24T06:16:47.563Z,0
2016-03-24T06:17:47.550Z,0
2016-03-24T06:18:47.552Z,0
2016-03-24T06:19:47.555Z,0
2016-03-24T06:20:47.573Z,0
2016-03-24T06:21:47.592Z,0
2016-03-24T06:22:47.563Z,0
2016-03-24T06:23:47.582Z,0
2016-03-24T06:24:47.584Z,0
2016-03-24T06:25:47.603Z,0
2016-03-24T06:26:47.605Z,5
2016-03-24T06:27:47.609Z,5
2016-03-24T06:28:47.626Z,5
2016-03-24T06:29:47.614Z,5
2016-03-24T06:30:47.616Z,5
2016-03-24T06:31:47.620Z,5
2016-03-24T06:32:47.637Z,5
2016-03-24T06:33:47.640Z,5
2016-03-24T06:34:47.642Z,5
2016-03-24T06:35:47.645Z,5
2016-03-24T06:36:47.664Z,5
2016-03-24T06:37:47.667Z,5
2016-03-24T06:38:47.684Z,10
2016-03-24T06:39:47.687Z,10
2016-03-24T06:40:47.689Z,10
2016-03-24T06:41:47.692Z,5
2016-03-24T06:42:47.695Z,10
2016-03-24T06:43:47.698Z,10
2016-03-24T06:44:47.700Z,10
2016-03-24T06:45:47.719Z,10
2016-03-24T06:46:47.738Z,10
2016-03-24T06:47:47.725Z,10
2016-03-24T06:48:47.727Z,10
2016-03-24T06:49:47.713Z,10
2016-03-24T06:50:47.888Z,10
2016-03-24T06:51:47.876Z,10
2016-03-24T06:52:47.894Z,10
2016-03-24T06:53:47.787Z,15
2016-03-24T06:54:47.790Z,15
2016-03-24T06:55:47.808Z,15
2016-03-24T06:56:47.827Z,15
2016-03-24T06:57:47.814Z,15
2016-03-24T06:58:47.832Z,15
2016-03-24T06:59:47.819Z,10
2016-03-24T07:00:47.838Z,10
2016-03-24T07:01:47.840Z,10
2016-03-24T07:02:47.828Z,10
2016-03-24T07:03:47.845Z,10
2016-03-24T07:04:47.833Z,10
2016-03-24T07:05:47.851Z,10
2016-03-24T07:06:47.714Z,10
2016-03-24T07:07:47.872Z,10
2016-03-24T07:08:47.859Z,10
2016-03-24T07:09:47.847Z,10
2016-03-24T07:10:47.850Z,10
2016-03-24T07:11:47.867Z,10
2016-03-24T07:12:47.854Z,10
2016-03-24T07:13:47.857Z,10
2016-03-24T07:14:48.031Z,10
2016-03-24T07:15:48.034Z,10
2016-03-24T07:16:47.927Z,10
2016-03-24T07:17:47.930Z,10
2016-03-24T07:18:47.916Z,10
2016-03-24T07:19:47.936Z,10
2016-03-24T07:20:47.954Z,10
2016-03-24T07:21:47.971Z,10
2016-03-24T07:22:47.960Z,10
2016-03-24T07:23:47.977Z,10
2016-03-24T07:24:47.980Z,10
2016-03-24T07:25:47.983Z,10
2016-03-24T07:26:47.985Z,10
2016-03-24T07:27:47.973Z,10
2016-03-24T07:28:47.991Z,10
2016-03-24T07:29:48.010Z,10
2016-03-24T07:30:47.996Z,10
2016-03-24T07:31:48.014Z,10
2016-03-24T07:32:48.002Z,10
2016-03-24T07:33:48.020Z,15
2016-03-24T07:34:48.070Z,15
2016-03-24T07:35:48.042Z,15
2016-03-24T07:36:48.044Z,15
2016-03-24T07:37:48.031Z,15
2016-03-24T07:38:48.049Z,15
2016-03-24T07:39:48.052Z,15
2016-03-24T07:40:48.055Z,10
2016-03-24T07:41:48.072Z,10
2016-03-24T07:42:48.075Z,15
2016-03-24T07:43:48.078Z,15
2016-03-24T07:44:48.081Z,15
2016-03-24T07:45:48.099Z,15
2016-03-24T07:46:48.102Z,10
2016-03-24T07:47:48.104Z,10
2016-03-24T07:48:48.108Z,10
2016-03-24T07:49:48.110Z,10
2016-03-24T07:50:48.127Z,10
2016-03-24T07:51:48.147Z,10
2016-03-24T07:52:48.133Z,10
2016-03-24T07:53:48.136Z,10
2016-03-24T07:54:48.139Z,10
2016-03-24T07:55:48.141Z,10
2016-03-24T07:56:48.160Z,10
2016-03-24T07:57:48.179Z,10
2016-03-24T07:58:48.166Z,10
2016-03-24T07:59:48.184Z,10
2016-03-24T08:00:48.186Z,10
2016-03-24T08:01:48.158Z,10
2016-03-24T08:02:48.176Z,10
2016-03-24T08:03:48.179Z,10
2016-03-24T08:04:48.073Z,10
2016-03-24T08:05:48.200Z,10
2016-03-24T08:06:48.044Z,10
2016-03-24T08:07:48.200Z,10
2016-03-24T08:08:48.217Z,10
2016-03-24T08:09:48.220Z,10
2016-03-24T08:10:48.223Z,10
2016-03-24T08:11:48.225Z,10
2016-03-24T08:12:48.072Z,10
2016-03-24T08:13:48.246Z,5
2016-03-24T08:14:48.249Z,5
2016-03-24T08:15:48.268Z,10
2016-03-24T08:16:48.271Z,10
2016-03-24T08:17:48.273Z,10
2016-03-24T08:18:48.260Z,10
2016-03-24T08:19:48.294Z,10
2016-03-24T08:20:48.313Z,10
2016-03-24T08:21:48.299Z,10
2016-03-24T08:22:48.301Z,10
2016-03-24T08:23:48.321Z,10
2016-03-24T08:24:48.307Z,10
2016-03-24T08:25:48.326Z,10
2016-03-24T08:26:48.329Z,10
2016-03-24T08:27:48.331Z,10
2016-03-24T08:28:47.600Z,10
2016-03-24T08:29:48.353Z,10
2016-03-24T08:30:48.355Z,15
2016-03-24T08:31:48.358Z,15
2016-03-24T08:32:48.376Z,15
2016-03-24T08:33:48.378Z,15
2016-03-24T08:34:48.386Z,15
2016-03-24T08:35:48.388Z,15
2016-03-24T08:36:48.374Z,15
2016-03-24T08:37:48.347Z,10
2016-03-24T08:38:48.333Z,10
2016-03-24T08:39:48.342Z,10
2016-03-24T08:40:48.325Z,5
2016-03-24T08:41:48.336Z,5
2016-03-24T08:42:48.334Z,5
2016-03-24T08:43:48.346Z,5
2016-03-24T08:44:48.330Z,5
2016-03-24T08:45:48.362Z,5
2016-03-24T08:46:48.363Z,5
2016-03-24T08:47:48.365Z,10
2016-03-24T08:48:48.365Z,10
2016-03-24T08:49:48.617Z,10
2016-03-24T08:50:48.368Z,5
2016-03-24T08:51:48.371Z,5
2016-03-24T08:52:48.387Z,5
2016-03-24T08:53:48.406Z,5
2016-03-24T08:54:48.392Z,5
2016-03-24T08:55:48.410Z,5
2016-03-24T08:56:48.413Z,5
2016-03-24T08:57:48.414Z,5
2016-03-24T08:58:48.433Z,0
2016-03-24T08:59:48.435Z,5
2016-03-24T09:00:48.438Z,5
2016-03-24T09:01:48.441Z,5
2016-03-24T09:02:48.459Z,5
2016-03-24T09:03:48.461Z,5
2016-03-24T09:04:48.527Z,5
2016-03-24T09:05:48.483Z,5
2016-03-24T09:06:48.485Z,5
2016-03-24T09:07:48.488Z,5
2016-03-24T09:08:48.505Z,5
2016-03-24T09:09:48.493Z,5
2016-03-24T09:10:48.511Z,5
2016-03-24T09:11:48.514Z,5
2016-03-24T09:12:48.516Z,5
2016-03-24T09:13:48.519Z,5
2016-03-24T09:14:48.538Z,5
2016-03-24T09:15:48.540Z,5
2016-03-24T09:16:48.559Z,5
2016-03-24T09:17:48.562Z,5
2016-03-24T09:18:48.564Z,5
2016-03-24T09:19:48.629Z,5
2016-03-24T09:20:48.585Z,10
2016-03-24T09:21:48.588Z,10
2016-03-24T09:22:48.590Z,10
2016-03-24T09:23:48.593Z,15
2016-03-24T09:24:48.596Z,15
2016-03-24T09:25:48.614Z,15
2016-03-24T09:26:48.633Z,15
2016-03-24T09:27:48.620Z,15
2016-03-24T09:28:48.639Z,15
2016-03-24T09:29:48.641Z,15
2016-03-24T09:30:48.644Z,15
2016-03-24T09:31:48.661Z,15
2016-03-24T09:32:48.649Z,15
2016-03-24T09:33:48.667Z,15
2016-03-24T09:34:48.732Z,15
2016-03-24T09:35:48.688Z,15
2016-03-24T09:36:48.691Z,15
2016-03-24T09:37:48.709Z,20
2016-03-24T09:38:48.711Z,20
2016-03-24T09:39:48.714Z,20
2016-03-24T09:40:48.717Z,25
2016-03-24T09:41:48.719Z,25
2016-03-24T09:42:48.754Z,25
2016-03-24T09:43:48.741Z,25
2016-03-24T09:44:48.760Z,25
2016-03-24T09:45:48.777Z,25
2016-03-24T09:46:48.765Z,25
2016-03-24T09:47:48.783Z,25
2016-03-24T09:48:48.785Z,25
2016-03-24T09:49:48.945Z,30
2016-03-24T09:50:48.806Z,30
2016-03-24T09:51:48.809Z,25
2016-03-24T09:52:48.828Z,25
2016-03-24T09:53:48.814Z,25
2016-03-24T09:54:48.834Z,25
2016-03-24T09:55:48.836Z,25
2016-03-24T09:56:48.838Z,25
2016-03-24T09:57:48.842Z,25
2016-03-24T09:58:48.844Z,25
2016-03-24T09:59:48.861Z,25
2016-03-24T10:00:48.881Z,25
2016-03-24T10:01:48.883Z,25
2016-03-24T10:02:48.886Z,25
2016-03-24T10:03:48.889Z,25
2016-03-24T10:04:48.922Z,25
2016-03-24T10:05:48.753Z,25
2016-03-24T10:06:48.912Z,20
2016-03-24T10:07:48.930Z,20
2016-03-24T10:08:48.932Z,20
2016-03-24T10:09:48.936Z,20
2016-03-24T10:10:48.782Z,20
2016-03-24T10:11:48.941Z,20
2016-03-24T10:12:48.960Z,20
2016-03-24T10:13:48.963Z,20
2016-03-24T10:14:48.965Z,25
2016-03-24T10:15:48.968Z,20
2016-03-24T10:16:48.970Z,20
2016-03-24T10:17:48.988Z,20
2016-03-24T10:18:48.991Z,20
2016-03-24T10:19:48.994Z,20
2016-03-24T10:20:49.012Z,20
2016-03-24T10:21:49.015Z,20
2016-03-24T10:22:49.034Z,20
2016-03-24T10:23:49.037Z,20
2016-03-24T10:24:49.039Z,20
2016-03-24T10:25:49.041Z,20
2016-03-24T10:26:49.059Z,20
2016-03-24T10:27:49.062Z,20
2016-03-24T10:28:49.065Z,25
2016-03-24T10:29:49.083Z,25
2016-03-24T10:30:49.087Z,25
2016-03-24T10:31:49.089Z,25
2016-03-24T10:32:49.107Z,25
2016-03-24T10:33:49.109Z,25
2016-03-24T10:34:49.128Z,25
2016-03-24T10:35:49.115Z,25
2016-03-24T10:36:49.117Z,25
2016-03-24T10:37:49.135Z,30
2016-03-24T10:38:49.139Z,30
2016-03-24T10:39:49.141Z,30
2016-03-24T10:40:49.160Z,30
2016-03-24T10:41:48.990Z,30
2016-03-24T10:42:49.166Z,30
2016-03-24T10:43:49.183Z,30
2016-03-24T10:44:49.170Z,30
2016-03-24T10:45:49.188Z,30
2016-03-24T10:46:49.191Z,30
2016-03-24T10:47:49.193Z,30
2016-03-24T10:48:49.196Z,30
2016-03-24T10:49:49.215Z,30
2016-03-24T10:50:49.062Z,30
2016-03-24T10:51:49.251Z,30
2016-03-24T10:52:49.239Z,35
2016-03-24T10:53:49.257Z,35
2016-03-24T10:54:49.104Z,35
2016-03-24T10:55:49.247Z,35
2016-03-24T10:56:49.265Z,35
2016-03-24T10:57:49.284Z,35
2016-03-24T10:58:49.286Z,35
2016-03-24T10:59:49.289Z,35
2016-03-24T11:00:49.306Z,35
2016-03-24T11:01:48.998Z,35
2016-03-24T11:02:49.329Z,35
2016-03-24T11:03:49.315Z,35
2016-03-24T11:04:49.318Z,40
2016-03-24T11:05:49.336Z,40
2016-03-24T11:06:49.339Z,40
2016-03-24T11:07:49.358Z,40
2016-03-24T11:08:49.360Z,35
2016-03-24T11:09:49.393Z,35
2016-03-24T11:10:49.365Z,35
2016-03-24T11:11:49.352Z,35
2016-03-24T11:12:49.371Z,35
2016-03-24T11:13:49.389Z,35
2016-03-24T11:14:49.391Z,35
2016-03-24T11:15:49.410Z,35
2016-03-24T11:16:49.412Z,35
2016-03-24T11:17:49.463Z,35
2016-03-24T11:18:49.418Z,35
2016-03-24T11:19:49.437Z,40
2016-03-24T11:20:49.439Z,40
2016-03-24T11:21:49.442Z,40
2016-03-24T11:22:49.445Z,40
2016-03-24T11:23:49.447Z,35
2016-03-24T11:24:49.466Z,35
2016-03-24T11:25:49.484Z,35
2016-03-24T11:26:49.501Z,35
2016-03-24T11:27:49.490Z,35
2016-03-24T11:28:49.492Z,35
2016-03-24T11:29:49.541Z,35
2016-03-24T11:30:49.498Z,35
2016-03-24T11:31:49.500Z,35
2016-03-24T11:32:49.518Z,30
2016-03-24T11:33:49.521Z,30
2016-03-24T11:34:49.539Z,35
2016-03-24T11:35:49.542Z,30
2016-03-24T11:36:49.560Z,30
2016-03-24T11:37:49.563Z,30
2016-03-24T11:38:49.566Z,25
2016-03-24T11:39:49.569Z,25
2016-03-24T11:40:49.571Z,25
2016-03-24T11:41:49.589Z,30
2016-03-24T11:42:49.592Z,30
2016-03-24T11:43:49.594Z,30
2016-03-24T11:44:49.613Z,30
2016-03-24T11:45:49.663Z,30
2016-03-24T11:46:49.618Z,30
2016-03-24T11:47:49.622Z,30
2016-03-24T11:48:49.624Z,30
2016-03-24T11:49:49.642Z,30
2016-03-24T11:50:49.645Z,30
2016-03-24T11:51:49.647Z,30
2016-03-24T11:52:49.665Z,30
2016-03-24T11:53:49.668Z,30
2016-03-24T11:54:49.671Z,30
2016-03-24T11:55:49.690Z,30
2016-03-24T11:56:49.707Z,30
2016-03-24T11:57:49.695Z,30
2016-03-24T11:58:49.713Z,30
2016-03-24T11:59:49.715Z,30
2016-03-24T12:00:49.718Z,30
2016-03-24T12:01:49.737Z,30
2016-03-24T12:02:49.740Z,30
2016-03-24T12:03:49.742Z,30
2016-03-24T12:04:49.745Z,30
2016-03-24T12:05:49.763Z,30
2016-03-24T12:06:49.750Z,30
2016-03-24T12:07:49.753Z,30
2016-03-24T12:08:49.771Z,30
2016-03-24T12:09:49.790Z,30
2016-03-24T12:10:49.808Z,30
2016-03-24T12:11:49.810Z,30
2016-03-24T12:12:49.813Z,30
2016-03-24T12:13:49.816Z,30
2016-03-24T12:14:49.819Z,30
2016-03-24T12:15:49.837Z,30
2016-03-24T12:16:49.841Z,30
2016-03-24T12:17:49.843Z,30
2016-03-24T12:18:49.860Z,30
2016-03-24T12:19:49.863Z,30
2016-03-24T12:20:49.865Z,30
2016-03-24T12:21:49.868Z,35
2016-03-24T12:22:49.887Z,35
2016-03-24T12:23:49.873Z,35
2016-03-24T12:24:49.893Z,35
2016-03-24T12:25:49.895Z,35
2016-03-24T12:26:49.898Z,35
2016-03-24T12:27:49.931Z,30
2016-03-24T12:28:49.935Z,35
2016-03-24T12:29:49.921Z,35
2016-03-24T12:30:49.924Z,35
2016-03-24T12:31:49.958Z,35
2016-03-24T12:32:49.929Z,35
2016-03-24T12:33:49.964Z,35
2016-03-24T12:34:49.981Z,35
2016-03-24T12:35:49.969Z,30
2016-03-24T12:36:49.972Z,30
2016-03-24T12:37:50.006Z,30
2016-03-24T12:38:50.024Z,30
2016-03-24T12:39:49.995Z,30
2016-03-24T12:40:50.014Z,30
2016-03-24T12:41:50.047Z,25
2016-03-24T12:42:50.019Z,25
2016-03-24T12:43:50.021Z,25
2016-03-24T12:44:49.869Z,25
2016-03-24T12:45:50.058Z,25
2016-03-24T12:46:50.029Z,25
2016-03-24T12:47:50.048Z,25
2016-03-24T12:48:50.066Z,30
2016-03-24T12:49:49.913Z,25
2016-03-24T12:50:50.071Z,25
2016-03-24T12:51:50.074Z,25
2016-03-24T12:52:50.093Z,25
2016-03-24T12:53:50.096Z,25
2016-03-24T12:54:50.113Z,25
2016-03-24T12:55:50.101Z,25
2016-03-24T12:56:50.103Z,25
2016-03-24T12:57:50.122Z,20
2016-03-24T12:58:50.124Z,20
2016-03-24T12:59:50.126Z,20
2016-03-24T13:00:50.161Z,20
2016-03-24T13:01:50.148Z,20
2016-03-24T13:02:50.010Z,20
2016-03-24T13:03:50.169Z,20
2016-03-24T13:04:50.204Z,25
2016-03-24T13:05:50.175Z,25
2016-03-24T13:06:50.209Z,25
2016-03-24T13:07:50.195Z,25
2016-03-24T13:08:50.229Z,25
2016-03-24T13:09:50.217Z,25
2016-03-24T13:10:50.219Z,25
2016-03-24T13:11:50.222Z,25
2016-03-24T13:12:50.255Z,30
2016-03-24T13:13:50.244Z,30
2016-03-24T13:14:50.246Z,30
2016-03-24T13:15:50.311Z,30
2016-03-24T13:16:50.266Z,30
2016-03-24T13:17:50.301Z,30
2016-03-24T13:18:50.288Z,30
2016-03-24T13:19:50.274Z,30
2016-03-24T13:20:50.277Z,30
2016-03-24T13:21:50.310Z,30
2016-03-24T13:22:50.283Z,35
2016-03-24T13:23:50.316Z,30
2016-03-24T13:24:50.319Z,30
2016-03-24T13:25:50.322Z,30
2016-03-24T13:26:50.325Z,30
2016-03-24T13:27:50.327Z,30
2016-03-24T13:28:50.376Z,30
2016-03-24T13:29:50.365Z,30
2016-03-24T13:30:50.351Z,30
2016-03-24T13:31:50.385Z,30
2016-03-24T13:32:50.373Z,30
2016-03-24T13:33:50.375Z,30
2016-03-24T13:34:50.408Z,30
2016-03-24T13:35:50.395Z,35
2016-03-24T13:36:50.398Z,35
2016-03-24T13:37:50.417Z,35
2016-03-24T13:38:50.419Z,35
2016-03-24T13:39:50.439Z,35
2016-03-24T13:40:50.425Z,35
2016-03-24T13:41:50.443Z,30
2016-03-24T13:42:50.446Z,30
2016-03-24T13:43:50.464Z,35
2016-03-24T13:44:50.452Z,30
2016-03-24T13:45:50.469Z,30
2016-03-24T13:46:50.472Z,35
2016-03-24T13:47:50.491Z,35
2016-03-24T13:48:50.478Z,35
2016-03-24T13:49:50.496Z,35
2016-03-24T13:50:50.624Z,35
2016-03-24T13:51:50.516Z,35
2016-03-24T13:52:50.536Z,35
2016-03-24T13:53:50.522Z,35
2016-03-24T13:54:50.400Z,35
2016-03-24T13:55:50.543Z,35
2016-03-24T13:56:50.562Z,35
2016-03-24T13:57:50.549Z,35
2016-03-24T13:58:50.568Z,35
2016-03-24T13:59:50.554Z,35
2016-03-24T14:00:50.572Z,35
2016-03-24T14:01:50.591Z,35
2016-03-24T14:02:50.579Z,35
2016-03-24T14:03:50.612Z,35
2016-03-24T14:04:50.614Z,35
2016-03-24T14:05:50.617Z,35
2016-03-24T14:06:50.619Z,35
2016-03-24T14:07:50.639Z,35
2016-03-24T14:08:50.625Z,35
2016-03-24T14:09:50.644Z,35
2016-03-24T14:10:50.646Z,35
2016-03-24T14:11:50.681Z,35
2016-03-24T14:12:50.667Z,35
2016-03-24T14:13:50.685Z,35
2016-03-24T14:14:50.672Z,35
2016-03-24T14:15:50.691Z,35
2016-03-24T14:16:50.568Z,35
2016-03-24T14:17:50.712Z,35
2016-03-24T14:18:50.699Z,35
2016-03-24T14:19:50.733Z,35
2016-03-24T14:20:50.751Z,35
2016-03-24T14:21:50.723Z,35
2016-03-24T14:22:50.585Z,35
2016-03-24T14:23:50.588Z,30
2016-03-24T14:24:50.762Z,30
2016-03-24T14:25:50.749Z,30
2016-03-24T14:26:50.767Z,30
2016-03-24T14:27:50.771Z,25
2016-03-24T14:28:50.788Z,25
2016-03-24T14:29:50.791Z,25
2016-03-24T14:30:50.809Z,25
2016-03-24T14:31:50.796Z,20
2016-03-24T14:32:50.815Z,20
2016-03-24T14:33:50.896Z,20
2016-03-24T14:34:50.820Z,15